Pagrindinis puslapis
METAR-TAF:

METAR-TAF

Oro uostai :

Longjyrbienas, Norvegija

platuma: 78-15N, ilguma: 015-28E, Aukštis: 2 m

Dabartinis oras

Ataskaita buvo paskelbta 13 minutes, ne 23:50 UTC
Vėjas 10 kt iš Rytų/Pietryčių
Temperatūra -17°C
Drėgmė 71%
Slėgis 1001 hPa
Matomumas 10 km arba daugiau
Išsisklaidę debesys ne aukštis 3000 ft

METAR: ENSB 072350Z 11010KT 9999 SCT030 M17/M21 Q1001 RMK WIND 1400FT 06005KT

Laikas: 02:03 (00:03 UTC)

Prognozė

Prognozė galioja nuo 08 metu 00 UTC su 08 metu 24 UTC
Vėjas 8 kt iš Rytų/Šiaurės Rytų
Matomumas 10 km arba daugiau
Mažai debesys ne aukštis 1000 ft
Išsisklaidę debesys ne aukštis 3000 ft
Laikinai
nuo 08 metu 00 UTC su 08 metu 24 UTC
Vėjas 10 kt iš Rytų/Pietryčių

TAF: ENSB 0800/0824 06008KT 9999 FEW010 SCT030 TEMPO 0800/0824 12010KT

Orai ataskaitas ir orų prognozės (METAR, TAF).

turimą stotys yra geltonos ir raudonos taškus žemėlapyje.

Perkelti pele per norėdami pamatyti stoties vardą.

Tada spustelėkite, norėdami matyti oro stebėjimo ir prognozės.

Norėdami pakeisti žemėlapį: spustelėkite ant žalios mygtukų su juodo kryžiaus žemyn,; žalią mygtuką su brūkšneliu, jei norite nutolinti; arba žalių rodyklių gretimoms žemėlapius.


METAR-TAF: